Time;durP1;ratioP1;P1;durP2;ratioP2;P2;SDS_P1;SDS_P2;PMS_P1;PMS_P2;Temp;Humidity;BMP_temperature;BMP_pressure;BME280_temperature;BME280_humidity;BME280_pressure;Samples;Min_cycle;Max_cycle;Signal;HPM_P1;HPM_P2
2022/09/16 00:00:19;;;;;;;0.55;0.55;;;;;;;;;;5062108;28;20060;-79
2022/09/16 00:02:44;;;;;;;0.80;0.77;;;;;;;;;;5055126;28;20021;-79
2022/09/16 00:05:10;;;;;;;0.20;0.20;;;;;;;;;;5054524;28;20057;-78
2022/09/16 00:07:35;;;;;;;0.20;0.20;;;;;;;;;;5053989;28;20536;-79
2022/09/16 00:10:01;;;;;;;0.30;0.30;;;;;;;;;;5053692;28;20049;-79
2022/09/16 00:12:26;;;;;;;0.30;0.30;;;;;;;;;;5053740;28;20388;-77
2022/09/16 00:14:53;;;;;;;0.20;0.20;;;;;;;;;;5053875;28;20558;-79
2022/09/16 00:17:18;;;;;;;0.20;0.20;;;;;;;;;;5036352;28;20187;-78
2022/09/16 00:19:44;;;;;;;0.30;0.30;;;;;;;;;;5053593;28;20572;-79
2022/09/16 00:22:09;;;;;;;0.28;0.28;;;;;;;;;;5053643;28;20068;-76
2022/09/16 00:24:35;;;;;;;0.20;0.20;;;;;;;;;;5053514;28;20025;-80
2022/09/16 00:27:00;;;;;;;0.20;0.20;;;;;;;;;;5034820;28;20106;-78
2022/09/16 00:29:26;;;;;;;1.15;0.75;;;;;;;;;;5033875;28;20024;-78
2022/09/16 00:31:51;;;;;;;0.22;0.22;;;;;;;;;;5033604;28;20041;-76
2022/09/16 00:34:17;;;;;;;0.20;0.20;;;;;;;;;;5033604;28;20026;-75
2022/09/16 00:36:42;;;;;;;0.20;0.20;;;;;;;;;;5033560;28;20026;-76
2022/09/16 00:39:07;;;;;;;0.30;0.30;;;;;;;;;;5015933;28;20065;-77
2022/09/16 00:41:33;;;;;;;0.20;0.20;;;;;;;;;;5034492;28;20380;-79
2022/09/16 00:44:00;;;;;;;0.20;0.20;;;;;;;;;;5033647;28;20034;-80
2022/09/16 00:46:29;;;;;;;0.20;0.20;;;;;;;;;;5016898;28;20021;-79
2022/09/16 00:48:55;;;;;;;0.20;0.20;;;;;;;;;;5033607;28;20057;-79
2022/09/16 00:51:21;;;;;;;0.43;0.43;;;;;;;;;;5033560;28;20083;-79
2022/09/16 00:53:50;;;;;;;0.80;0.80;;;;;;;;;;5033425;28;20060;-77
2022/09/16 00:56:18;;;;;;;0.20;0.20;;;;;;;;;;5015653;28;20033;-77
2022/09/16 00:58:46;;;;;;;0.20;0.20;;;;;;;;;;5033536;28;20096;-76
2022/09/16 01:01:11;;;;;;;0.30;0.30;;;;;;;;;;5033553;28;20033;-76
2022/09/16 01:03:41;;;;;;;0.28;0.28;;;;;;;;;;5033385;28;20095;-76
2022/09/16 01:06:08;;;;;;;10.63;0.75;;;;;;;;;;5033410;28;20083;-75
2022/09/16 01:08:34;;;;;;;0.20;0.20;;;;;;;;;;5033592;28;20473;-75
2022/09/16 01:10:59;;;;;;;0.20;0.20;;;;;;;;;;5033406;28;20087;-76
2022/09/16 01:13:25;;;;;;;0.20;0.20;;;;;;;;;;5033500;28;20033;-76
2022/09/16 01:15:59;;;;;;;0.20;0.20;;;;;;;;;;5015703;28;20550;-75
2022/09/16 01:18:42;;;;;;;0.30;0.30;;;;;;;;;;5033220;28;20022;-77
2022/09/16 01:21:10;;;;;;;0.20;0.20;;;;;;;;;;5033056;28;20124;-78
2022/09/16 01:23:44;;;;;;;0.20;0.20;;;;;;;;;;4999028;28;20061;-77
2022/09/16 01:26:29;;;;;;;0.20;0.20;;;;;;;;;;5015497;28;20473;-76
2022/09/16 01:29:03;;;;;;;0.20;0.20;;;;;;;;;;5033098;28;20097;-76
2022/09/16 01:31:41;;;;;;;0.20;0.20;;;;;;;;;;5033691;28;20042;-76
2022/09/16 01:34:10;;;;;;;0.20;0.20;;;;;;;;;;5015785;28;20373;-76
2022/09/16 01:36:54;;;;;;;0.20;0.20;;;;;;;;;;5033214;28;20068;-75
2022/09/16 01:39:20;;;;;;;0.20;0.20;;;;;;;;;;5033010;28;20100;-75
2022/09/16 01:42:00;;;;;;;0.20;0.20;;;;;;;;;;5032877;28;20430;-75
2022/09/16 01:44:25;;;;;;;0.20;0.20;;;;;;;;;;5033154;28;20039;-75
2022/09/16 01:47:19;;;;;;;0.20;0.20;;;;;;;;;;5033010;28;20017;-75
2022/09/16 01:50:04;;;;;;;0.20;0.20;;;;;;;;;;5004357;28;20528;-75
2022/09/16 01:52:52;;;;;;;0.20;0.20;;;;;;;;;;5031988;28;20041;-74
2022/09/16 01:55:21;;;;;;;3.50;2.67;;;;;;;;;;5032936;28;20498;-75
2022/09/16 01:57:47;;;;;;;0.20;0.20;;;;;;;;;;5032892;28;20109;-75
2022/09/16 02:00:13;;;;;;;0.20;0.20;;;;;;;;;;5032634;28;20156;-75
2022/09/16 02:02:44;;;;;;;0.20;0.20;;;;;;;;;;5032795;28;20033;-75
2022/09/16 02:05:13;;;;;;;0.20;0.20;;;;;;;;;;5032650;28;20053;-75
2022/09/16 02:07:41;;;;;;;0.30;0.30;;;;;;;;;;5032823;28;20117;-75
2022/09/16 02:10:12;;;;;;;0.20;0.20;;;;;;;;;;5032578;28;20057;-76
2022/09/16 02:12:40;;;;;;;0.20;0.20;;;;;;;;;;5015008;28;20120;-78
2022/09/16 02:15:08;;;;;;;0.20;0.20;;;;;;;;;;5032685;28;20034;-79
2022/09/16 02:17:35;;;;;;;0.28;0.28;;;;;;;;;;4998449;28;20018;-79
2022/09/16 02:20:01;;;;;;;0.17;0.17;;;;;;;;;;5033642;28;20121;-78
2022/09/16 02:22:31;;;;;;;0.20;0.20;;;;;;;;;;5035850;28;20108;-78
2022/09/16 02:24:57;;;;;;;0.20;0.20;;;;;;;;;;5036246;28;20446;-78
2022/09/16 02:27:23;;;;;;;0.20;0.20;;;;;;;;;;5036093;28;20026;-78
2022/09/16 02:29:53;;;;;;;0.25;0.25;;;;;;;;;;5019226;28;20083;-77
2022/09/16 02:32:19;;;;;;;0.30;0.30;;;;;;;;;;5018246;28;20108;-77
2022/09/16 02:34:46;;;;;;;0.20;0.20;;;;;;;;;;5036105;28;20120;-78
2022/09/16 02:37:16;;;;;;;0.30;0.30;;;;;;;;;;5036179;28;20416;-78
2022/09/16 02:39:45;;;;;;;0.20;0.20;;;;;;;;;;5018309;28;20453;-78
2022/09/16 02:42:11;;;;;;;0.30;0.30;;;;;;;;;;5018118;28;20492;-76
2022/09/16 02:44:36;;;;;;;0.20;0.20;;;;;;;;;;5036461;28;20030;-75
2022/09/16 02:47:13;;;;;;;0.25;0.25;;;;;;;;;;5035697;28;20021;-76
2022/09/16 02:49:43;;;;;;;0.20;0.20;;;;;;;;;;5035971;28;20434;-76
2022/09/16 02:52:30;;;;;;;0.28;0.28;;;;;;;;;;5018269;28;20034;-77
2022/09/16 02:55:01;;;;;;;0.40;0.40;;;;;;;;;;5022340;28;20049;-78
2022/09/16 02:57:28;;;;;;;0.22;0.22;;;;;;;;;;5017831;28;20454;-77
2022/09/16 02:59:53;;;;;;;0.20;0.20;;;;;;;;;;5036558;28;20025;-79
2022/09/16 03:02:19;;;;;;;0.25;0.25;;;;;;;;;;5035439;28;20079;-77
2022/09/16 03:04:45;;;;;;;0.20;0.20;;;;;;;;;;5034065;28;20123;-78
2022/09/16 03:07:11;;;;;;;0.20;0.20;;;;;;;;;;5051839;28;20167;-77
2022/09/16 03:09:39;;;;;;;0.28;0.28;;;;;;;;;;5051237;28;20082;-77
2022/09/16 03:12:04;;;;;;;0.20;0.20;;;;;;;;;;5051443;28;20044;-77
2022/09/16 03:14:41;;;;;;;0.28;0.28;;;;;;;;;;5051515;28;20242;-76
2022/09/16 03:17:21;;;;;;;0.28;0.28;;;;;;;;;;5039113;28;20058;-76
2022/09/16 03:19:59;;;;;;;0.57;0.57;;;;;;;;;;5031457;28;20067;-76
2022/09/16 03:22:43;;;;;;;0.20;0.20;;;;;;;;;;5031161;28;20080;-75
2022/09/16 03:25:14;;;;;;;0.20;0.20;;;;;;;;;;5031049;28;20095;-75
2022/09/16 03:27:43;;;;;;;0.25;0.25;;;;;;;;;;5030735;28;20029;-75
2022/09/16 03:30:09;;;;;;;0.20;0.20;;;;;;;;;;5033963;28;20022;-75
2022/09/16 03:32:42;;;;;;;0.20;0.20;;;;;;;;;;5030763;28;20037;-74
2022/09/16 03:35:11;;;;;;;0.30;0.30;;;;;;;;;;5031128;28;20036;-76
2022/09/16 03:37:38;;;;;;;0.57;0.55;;;;;;;;;;5030784;28;20070;-77
2022/09/16 03:40:14;;;;;;;0.22;0.22;;;;;;;;;;4996753;28;20025;-76
2022/09/16 03:42:41;;;;;;;0.20;0.20;;;;;;;;;;5013265;28;20033;-76
2022/09/16 03:45:09;;;;;;;0.22;0.22;;;;;;;;;;5013337;28;20025;-76
2022/09/16 03:47:34;;;;;;;0.20;0.20;;;;;;;;;;5030420;28;20033;-76
2022/09/16 03:49:59;;;;;;;0.95;0.95;;;;;;;;;;5030839;28;20487;-77
2022/09/16 03:52:25;;;;;;;0.30;0.30;;;;;;;;;;5030421;28;20099;-77
2022/09/16 03:54:53;;;;;;;3.05;2.85;;;;;;;;;;5036232;28;20032;-80
2022/09/16 03:57:21;;;;;;;0.22;0.22;;;;;;;;;;5033103;28;20040;-77
2022/09/16 03:59:47;;;;;;;0.20;0.20;;;;;;;;;;5050728;28;20029;-76
2022/09/16 04:02:12;;;;;;;0.20;0.20;;;;;;;;;;5050424;28;20048;-79
2022/09/16 04:04:38;;;;;;;0.40;0.40;;;;;;;;;;5050512;28;20021;-80
2022/09/16 04:07:03;;;;;;;0.20;0.20;;;;;;;;;;5050913;28;20060;-80
2022/09/16 04:09:29;;;;;;;0.20;0.20;;;;;;;;;;5050369;28;20143;-74
2022/09/16 04:11:54;;;;;;;0.20;0.20;;;;;;;;;;5050195;28;20419;-76
2022/09/16 04:14:20;;;;;;;5.15;4.03;;;;;;;;;;5032485;28;20037;-76
2022/09/16 04:16:45;;;;;;;0.20;0.20;;;;;;;;;;5050097;28;20032;-76
2022/09/16 04:19:12;;;;;;;0.20;0.20;;;;;;;;;;5050391;28;20091;-75
2022/09/16 04:21:38;;;;;;;0.20;0.20;;;;;;;;;;5032402;28;20358;-76
2022/09/16 04:24:04;;;;;;;0.20;0.20;;;;;;;;;;5050525;28;20017;-75
2022/09/16 04:26:29;;;;;;;0.20;0.20;;;;;;;;;;5050411;28;20029;-77
2022/09/16 04:28:55;;;;;;;0.30;0.30;;;;;;;;;;5043646;28;20041;-76
2022/09/16 04:31:20;;;;;;;0.30;0.30;;;;;;;;;;5063216;28;20033;-76
2022/09/16 04:33:46;;;;;;;0.20;0.20;;;;;;;;;;5060656;28;20040;-76
2022/09/16 04:36:16;;;;;;;0.22;0.22;;;;;;;;;;5043389;28;20035;-76
2022/09/16 04:38:42;;;;;;;0.20;0.20;;;;;;;;;;5052031;28;20043;-77
2022/09/16 04:41:08;;;;;;;0.20;0.20;;;;;;;;;;5050303;28;20029;-77
2022/09/16 04:43:33;;;;;;;0.20;0.20;;;;;;;;;;5049178;28;20047;-75
2022/09/16 04:45:59;;;;;;;0.20;0.20;;;;;;;;;;5049604;28;20496;-75
2022/09/16 04:48:24;;;;;;;0.20;0.20;;;;;;;;;;5048632;28;20033;-75
2022/09/16 04:50:51;;;;;;;0.20;0.20;;;;;;;;;;5013142;28;20033;-75
2022/09/16 04:53:16;;;;;;;0.20;0.20;;;;;;;;;;5029708;28;20080;-75
2022/09/16 04:55:43;;;;;;;0.20;0.20;;;;;;;;;;5028702;28;20033;-76
2022/09/16 04:58:08;;;;;;;0.20;0.20;;;;;;;;;;5048683;28;20024;-80
2022/09/16 05:00:34;;;;;;;0.30;0.30;;;;;;;;;;5045676;28;20022;-75
2022/09/16 05:02:59;;;;;;;0.20;0.20;;;;;;;;;;5038002;28;20029;-75
2022/09/16 05:05:24;;;;;;;0.20;0.20;;;;;;;;;;5029759;28;20044;-78
2022/09/16 05:07:51;;;;;;;0.20;0.20;;;;;;;;;;5028768;28;20048;-75
2022/09/16 05:10:16;;;;;;;0.25;0.25;;;;;;;;;;5033460;28;20095;-75
2022/09/16 05:12:41;;;;;;;0.20;0.20;;;;;;;;;;5045984;28;20403;-74
2022/09/16 05:15:08;;;;;;;0.28;0.28;;;;;;;;;;5027089;28;20056;-75
2022/09/16 05:17:33;;;;;;;0.20;0.20;;;;;;;;;;5010965;28;20136;-75
2022/09/16 05:19:59;;;;;;;0.38;0.38;;;;;;;;;;5028953;28;20124;-77
2022/09/16 05:22:24;;;;;;;0.20;0.20;;;;;;;;;;5011416;28;20373;-75
2022/09/16 05:24:49;;;;;;;0.20;0.20;;;;;;;;;;5029021;28;20473;-79
2022/09/16 05:27:15;;;;;;;0.50;0.30;;;;;;;;;;5029226;28;20457;-77
2022/09/16 05:29:40;;;;;;;0.60;0.60;;;;;;;;;;5029182;28;20029;-79
2022/09/16 05:32:06;;;;;;;14.60;4.75;;;;;;;;;;5038625;28;20112;-78
2022/09/16 05:34:32;;;;;;;0.20;0.20;;;;;;;;;;5028098;28;20026;-84
2022/09/16 05:36:59;;;;;;;0.20;0.20;;;;;;;;;;5030040;28;20014;-76
2022/09/16 05:39:24;;;;;;;0.30;0.30;;;;;;;;;;5028739;28;20048;-76
2022/09/16 05:41:52;;;;;;;0.30;0.30;;;;;;;;;;5031827;28;20179;-78
2022/09/16 05:44:17;;;;;;;0.20;0.20;;;;;;;;;;5045511;28;20029;-78
2022/09/16 05:46:43;;;;;;;0.20;0.20;;;;;;;;;;5029905;28;20014;-76
2022/09/16 05:49:08;;;;;;;0.20;0.20;;;;;;;;;;5031102;28;20922;-78
2022/09/16 05:51:35;;;;;;;0.20;0.20;;;;;;;;;;5037796;28;20092;-78
2022/09/16 05:54:01;;;;;;;0.20;0.20;;;;;;;;;;5029748;28;20048;-78
2022/09/16 05:56:28;;;;;;;0.20;0.20;;;;;;;;;;5013032;28;20136;-78
2022/09/16 05:58:55;;;;;;;0.30;0.30;;;;;;;;;;5046303;28;20029;-77
2022/09/16 06:01:22;;;;;;;0.20;0.20;;;;;;;;;;5034234;28;20391;-77
2022/09/16 06:03:48;;;;;;;4.93;4.68;;;;;;;;;;5052449;28;20032;-79
2022/09/16 06:06:20;;;;;;;0.20;0.20;;;;;;;;;;5046281;28;20108;-79
2022/09/16 06:08:46;;;;;;;0.20;0.20;;;;;;;;;;5043611;28;20025;-76
2022/09/16 06:11:11;;;;;;;0.30;0.30;;;;;;;;;;5046060;28;20031;-76
2022/09/16 06:13:38;;;;;;;0.20;0.20;;;;;;;;;;5044920;28;20052;-79
2022/09/16 06:16:05;;;;;;;0.20;0.20;;;;;;;;;;5045332;28;20540;-77
2022/09/16 06:18:30;;;;;;;1.45;1.27;;;;;;;;;;5052377;28;20103;-79
2022/09/16 06:20:57;;;;;;;0.30;0.30;;;;;;;;;;5052361;28;20043;-76
2022/09/16 06:23:22;;;;;;;3.40;1.08;;;;;;;;;;5045197;28;20532;-76
2022/09/16 06:25:47;;;;;;;0.30;0.30;;;;;;;;;;5052342;28;20429;-80
2022/09/16 06:28:14;;;;;;;0.20;0.20;;;;;;;;;;5042437;28;20030;-76
2022/09/16 06:30:39;;;;;;;0.22;0.22;;;;;;;;;;5037843;28;20041;-76
2022/09/16 06:33:05;;;;;;;1.13;0.98;;;;;;;;;;5050996;28;20045;-76
2022/09/16 06:35:32;;;;;;;0.20;0.20;;;;;;;;;;5051043;28;20036;-77
2022/09/16 06:37:58;;;;;;;1.83;0.65;;;;;;;;;;5051976;28;20029;-77
2022/09/16 06:40:24;;;;;;;0.50;0.50;;;;;;;;;;5034011;28;20028;-78
2022/09/16 06:42:52;;;;;;;2.38;0.73;;;;;;;;;;5049028;28;20097;-78
2022/09/16 06:45:18;;;;;;;0.20;0.20;;;;;;;;;;5022937;28;20036;-75
2022/09/16 06:47:43;;;;;;;0.25;0.25;;;;;;;;;;5051071;28;20025;-75
2022/09/16 06:50:09;;;;;;;0.20;0.20;;;;;;;;;;5051330;28;20032;-76
2022/09/16 06:52:34;;;;;;;0.30;0.30;;;;;;;;;;5050997;28;20472;-77
2022/09/16 06:55:00;;;;;;;0.20;0.20;;;;;;;;;;5041113;28;20104;-77
2022/09/16 06:57:25;;;;;;;0.28;0.28;;;;;;;;;;5047420;28;20388;-79
2022/09/16 06:59:51;;;;;;;0.28;0.28;;;;;;;;;;5049696;28;20099;-79
2022/09/16 07:02:18;;;;;;;0.20;0.20;;;;;;;;;;5043700;28;20033;-80
2022/09/16 07:04:44;;;;;;;0.32;0.32;;;;;;;;;;5014023;28;20021;-78
2022/09/16 07:07:09;;;;;;;0.20;0.20;;;;;;;;;;5010532;28;20484;-77
2022/09/16 07:09:35;;;;;;;0.20;0.20;;;;;;;;;;5028810;28;20053;-77
2022/09/16 07:12:01;;;;;;;0.30;0.30;;;;;;;;;;5041435;28;20033;-78
2022/09/16 07:14:27;;;;;;;3.63;1.10;;;;;;;;;;5026523;28;20072;-77
2022/09/16 07:16:52;;;;;;;6.07;1.45;;;;;;;;;;5039330;28;20037;-76
2022/09/16 07:19:18;;;;;;;0.30;0.30;;;;;;;;;;5046964;28;20086;-77
2022/09/16 07:21:43;;;;;;;4.55;2.10;;;;;;;;;;5032454;28;20044;-77
2022/09/16 07:24:10;;;;;;;0.40;0.40;;;;;;;;;;5039710;28;20041;-79
2022/09/16 07:26:38;;;;;;;2.63;0.85;;;;;;;;;;5034680;28;20025;-73
2022/09/16 07:29:05;;;;;;;0.30;0.30;;;;;;;;;;5032662;28;20444;-75
2022/09/16 07:31:32;;;;;;;1.98;0.85;;;;;;;;;;5006630;28;20021;-75
2022/09/16 07:33:58;;;;;;;0.57;0.57;;;;;;;;;;5032448;28;20099;-73
2022/09/16 07:36:27;;;;;;;4.70;1.80;;;;;;;;;;5044728;28;20049;-72
2022/09/16 07:38:53;;;;;;;0.45;0.45;;;;;;;;;;5042430;28;20029;-73
2022/09/16 07:41:23;;;;;;;15.00;1.75;;;;;;;;;;5045790;28;20025;-74
2022/09/16 07:43:49;;;;;;;0.82;0.82;;;;;;;;;;5040263;28;20083;-73
2022/09/16 07:46:16;;;;;;;9.93;2.00;;;;;;;;;;5039541;28;20017;-72
2022/09/16 07:48:41;;;;;;;2.92;0.93;;;;;;;;;;5012141;28;20042;-73
2022/09/16 07:51:09;;;;;;;3.10;0.88;;;;;;;;;;5027022;28;20358;-74
2022/09/16 07:53:35;;;;;;;2.17;0.52;;;;;;;;;;5027388;28;20483;-74
2022/09/16 07:56:19;;;;;;;3.38;0.95;;;;;;;;;;5027993;28;20026;-73
2022/09/16 07:58:45;;;;;;;4.68;1.52;;;;;;;;;;5033359;28;20083;-73
2022/09/16 08:01:12;;;;;;;4.57;1.27;;;;;;;;;;5042606;28;20476;-72
2022/09/16 08:03:38;;;;;;;1.98;1.00;;;;;;;;;;5047008;28;20029;-74
2022/09/16 08:06:05;;;;;;;2.33;1.20;;;;;;;;;;5011645;28;20029;-73
2022/09/16 08:08:30;;;;;;;5.65;2.35;;;;;;;;;;5046954;28;20033;-74
2022/09/16 08:10:56;;;;;;;8.23;1.63;;;;;;;;;;5042473;28;20041;-73
2022/09/16 08:13:22;;;;;;;4.68;1.38;;;;;;;;;;5037886;28;20045;-72
2022/09/16 08:15:49;;;;;;;2.17;1.58;;;;;;;;;;5039637;28;20055;-72
2022/09/16 08:18:14;;;;;;;2.28;1.33;;;;;;;;;;5043217;28;20036;-73
2022/09/16 08:20:40;;;;;;;0.75;0.75;;;;;;;;;;5025530;28;20069;-73
2022/09/16 08:23:06;;;;;;;4.18;1.80;;;;;;;;;;5040655;28;20032;-75
2022/09/16 08:25:31;;;;;;;2.88;0.70;;;;;;;;;;5013595;28;20045;-73
2022/09/16 08:27:57;;;;;;;2.00;0.90;;;;;;;;;;5040579;28;20052;-73
2022/09/16 08:30:22;;;;;;;1.48;0.68;;;;;;;;;;5028506;28;20037;-73
2022/09/16 08:32:54;;;;;;;2.47;0.60;;;;;;;;;;5046082;28;20039;-73
2022/09/16 08:35:19;;;;;;;0.50;0.50;;;;;;;;;;5044562;28;20120;-72
2022/09/16 08:37:45;;;;;;;0.40;0.40;;;;;;;;;;5045244;28;20435;-73
2022/09/16 08:40:13;;;;;;;2.42;0.85;;;;;;;;;;5046185;28;20041;-72
2022/09/16 08:42:51;;;;;;;1.00;0.70;;;;;;;;;;5025426;28;20096;-73
2022/09/16 08:45:23;;;;;;;1.55;0.35;;;;;;;;;;5044838;28;20083;-72
2022/09/16 08:47:49;;;;;;;0.57;0.50;;;;;;;;;;5040419;28;20139;-72
2022/09/16 08:50:17;;;;;;;1.05;0.77;;;;;;;;;;5038846;28;20100;-72
2022/09/16 08:52:44;;;;;;;2.05;0.80;;;;;;;;;;5027891;28;20032;-73
2022/09/16 08:55:09;;;;;;;8.13;1.65;;;;;;;;;;5042033;28;20028;-74
2022/09/16 08:57:38;;;;;;;1.08;0.93;;;;;;;;;;5026400;28;20037;-73
2022/09/16 09:00:07;;;;;;;1.10;0.88;;;;;;;;;;5038843;28;20372;-73
2022/09/16 09:05:42;;;;;;;2.45;0.98;;;;;;;;;;5040209;28;19920;-74
2022/09/16 09:08:40;;;;;;;2.85;1.55;;;;;;;;;;5003274;28;20029;-73
2022/09/16 09:11:11;;;;;;;1.97;1.20;;;;;;;;;;4972499;28;20131;-73
2022/09/16 09:13:37;;;;;;;10.38;0.65;;;;;;;;;;5043404;28;20032;-73
2022/09/16 09:16:05;;;;;;;2.47;1.00;;;;;;;;;;5044619;28;20494;-72
2022/09/16 09:18:51;;;;;;;1.75;0.73;;;;;;;;;;5043918;28;20028;-73
2022/09/16 09:21:30;;;;;;;0.43;0.40;;;;;;;;;;5020108;28;20494;-73
2022/09/16 09:24:07;;;;;;;0.65;0.60;;;;;;;;;;5023278;28;20063;-73
2022/09/16 09:26:32;;;;;;;3.00;1.48;;;;;;;;;;5025562;28;20029;-74
2022/09/16 09:28:58;;;;;;;0.20;0.20;;;;;;;;;;5043166;28;20475;-74
2022/09/16 09:31:35;;;;;;;0.77;0.52;;;;;;;;;;5048413;28;20522;-72
2022/09/16 09:34:03;;;;;;;3.05;0.60;;;;;;;;;;5043786;28;20036;-75
2022/09/16 09:36:41;;;;;;;4.65;1.20;;;;;;;;;;5046833;28;20036;-74
2022/09/16 09:39:09;;;;;;;6.93;2.40;;;;;;;;;;5047932;28;20036;-73
2022/09/16 09:42:04;;;;;;;0.38;0.38;;;;;;;;;;5050165;28;20021;-72
2022/09/16 09:44:39;;;;;;;2.10;0.73;;;;;;;;;;5039615;28;20036;-74
2022/09/16 09:47:16;;;;;;;0.73;0.65;;;;;;;;;;5046617;28;20036;-72
2022/09/16 09:49:45;;;;;;;1.85;0.57;;;;;;;;;;5050233;28;20024;-73
2022/09/16 09:52:15;;;;;;;5.63;0.63;;;;;;;;;;5050610;28;20148;-72
2022/09/16 09:55:18;;;;;;;3.70;0.90;;;;;;;;;;5052699;28;21056;-73
2022/09/16 09:58:24;;;;;;;0.40;0.40;;;;;;;;;;5058989;28;20029;-72
2022/09/16 10:00:52;;;;;;;0.52;0.50;;;;;;;;;;5049696;28;20017;-73
2022/09/16 10:03:18;;;;;;;1.73;0.70;;;;;;;;;;5050554;28;20037;-72
2022/09/16 10:05:45;;;;;;;4.35;1.30;;;;;;;;;;5031497;28;20075;-72
2022/09/16 10:08:19;;;;;;;1.27;0.50;;;;;;;;;;5048964;28;20043;-72
2022/09/16 10:10:50;;;;;;;1.33;0.65;;;;;;;;;;5049368;28;20045;-73
2022/09/16 10:13:16;;;;;;;3.55;1.25;;;;;;;;;;5049758;28;20045;-72
2022/09/16 10:15:43;;;;;;;0.68;0.43;;;;;;;;;;5031198;28;20043;-72
2022/09/16 10:18:11;;;;;;;2.17;0.70;;;;;;;;;;5031461;28;20371;-73
2022/09/16 10:20:38;;;;;;;3.27;1.40;;;;;;;;;;5049652;28;20057;-73
2022/09/16 10:23:08;;;;;;;0.43;0.40;;;;;;;;;;5031570;28;20309;-73
2022/09/16 10:25:34;;;;;;;0.55;0.55;;;;;;;;;;5049162;28;20392;-73
2022/09/16 10:28:00;;;;;;;6.90;0.98;;;;;;;;;;5049948;28;20017;-73
2022/09/16 10:30:28;;;;;;;1.45;0.68;;;;;;;;;;5030084;28;20021;-73
2022/09/16 10:32:57;;;;;;;9.20;2.90;;;;;;;;;;5049301;28;20120;-72
2022/09/16 10:35:24;;;;;;;2.20;2.00;;;;;;;;;;5050456;28;20238;-72
2022/09/16 10:37:55;;;;;;;5.35;1.38;;;;;;;;;;5039385;28;20271;-73
2022/09/16 10:40:22;;;;;;;3.15;0.80;;;;;;;;;;5044416;28;20477;-72
2022/09/16 10:42:52;;;;;;;0.30;0.30;;;;;;;;;;5048158;28;20044;-73
2022/09/16 10:45:28;;;;;;;3.63;1.23;;;;;;;;;;5049027;28;20025;-74
2022/09/16 10:48:01;;;;;;;3.28;1.05;;;;;;;;;;5047597;28;20388;-73
2022/09/16 10:50:27;;;;;;;6.07;1.30;;;;;;;;;;5021919;28;20052;-73
2022/09/16 10:52:53;;;;;;;2.55;1.05;;;;;;;;;;5044965;28;20041;-74
2022/09/16 10:55:18;;;;;;;1.80;0.60;;;;;;;;;;5048514;28;20087;-73
2022/09/16 10:57:44;;;;;;;0.52;0.50;;;;;;;;;;5044861;28;20079;-73
2022/09/16 11:00:12;;;;;;;0.43;0.35;;;;;;;;;;5048131;28;20031;-73
2022/09/16 11:02:38;;;;;;;11.48;0.50;;;;;;;;;;5044763;28;20107;-72
2022/09/16 11:05:09;;;;;;;1.20;0.55;;;;;;;;;;5040337;28;20571;-73
2022/09/16 11:07:49;;;;;;;1.90;1.05;;;;;;;;;;5026879;28;20031;-73
2022/09/16 11:10:22;;;;;;;0.30;0.30;;;;;;;;;;5044007;28;20103;-72
2022/09/16 11:12:50;;;;;;;3.55;0.88;;;;;;;;;;5036891;28;20071;-73
2022/09/16 11:15:27;;;;;;;1.23;0.80;;;;;;;;;;5046601;28;20032;-73
2022/09/16 11:17:56;;;;;;;0.43;0.43;;;;;;;;;;5045414;28;20346;-73
2022/09/16 11:20:32;;;;;;;4.95;1.88;;;;;;;;;;5031679;28;20080;-73
2022/09/16 11:23:03;;;;;;;4.95;1.33;;;;;;;;;;5028043;28;20075;-72
2022/09/16 11:25:34;;;;;;;0.75;0.68;;;;;;;;;;5029458;28;20028;-72
2022/09/16 11:28:19;;;;;;;0.80;0.77;;;;;;;;;;5042033;28;20116;-73
2022/09/16 11:31:23;;;;;;;2.88;1.90;;;;;;;;;;5031914;28;20581;-73
2022/09/16 11:33:58;;;;;;;3.42;1.73;;;;;;;;;;4970552;28;20050;-73
2022/09/16 11:36:36;;;;;;;2.97;0.60;;;;;;;;;;4970140;28;20030;-74
2022/09/16 11:39:37;;;;;;;2.72;1.00;;;;;;;;;;5023240;28;20056;-73
2022/09/16 11:42:11;;;;;;;1.63;1.10;;;;;;;;;;4967395;28;20062;-73
2022/09/16 11:45:03;;;;;;;1.98;0.57;;;;;;;;;;5018325;28;20073;-74
2022/09/16 11:47:28;;;;;;;0.43;0.43;;;;;;;;;;5002044;28;20492;-73
2022/09/16 11:49:56;;;;;;;2.83;0.95;;;;;;;;;;5027788;28;20044;-72
2022/09/16 11:52:31;;;;;;;1.00;0.73;;;;;;;;;;5041710;28;20028;-73
2022/09/16 11:54:56;;;;;;;3.97;1.33;;;;;;;;;;5043958;28;20135;-73
2022/09/16 11:57:28;;;;;;;3.60;1.20;;;;;;;;;;5038564;28;20500;-73
2022/09/16 11:59:56;;;;;;;4.50;1.27;;;;;;;;;;5032941;28;20361;-73
2022/09/16 12:02:43;;;;;;;1.00;0.55;;;;;;;;;;5030803;28;20312;-73
2022/09/16 12:05:11;;;;;;;1.23;0.70;;;;;;;;;;5037285;28;20056;-73
2022/09/16 12:07:40;;;;;;;3.22;0.60;;;;;;;;;;5039056;28;20029;-73
2022/09/16 12:10:12;;;;;;;3.42;1.02;;;;;;;;;;5036043;28;20050;-71
2022/09/16 12:12:42;;;;;;;3.60;1.15;;;;;;;;;;5044312;28;20044;-69
2022/09/16 12:15:14;;;;;;;3.10;0.50;;;;;;;;;;5047071;28;20051;-73
2022/09/16 12:17:42;;;;;;;2.15;1.00;;;;;;;;;;5045917;28;20029;-73
2022/09/16 12:20:14;;;;;;;2.40;0.73;;;;;;;;;;5029353;28;20055;-75
2022/09/16 12:22:59;;;;;;;3.30;1.20;;;;;;;;;;5011466;28;20932;-79
2022/09/16 12:25:32;;;;;;;1.27;0.75;;;;;;;;;;5047217;28;20037;-75
2022/09/16 12:28:03;;;;;;;2.35;2.15;;;;;;;;;;5046690;28;20021;-75
2022/09/16 12:30:33;;;;;;;3.20;1.23;;;;;;;;;;5026530;28;20033;-73
2022/09/16 12:33:02;;;;;;;0.90;0.38;;;;;;;;;;5029597;28;20072;-73
2022/09/16 12:35:30;;;;;;;1.90;0.70;;;;;;;;;;5046230;28;20017;-78
2022/09/16 12:37:56;;;;;;;0.32;0.32;;;;;;;;;;5046636;28;20259;-71
2022/09/16 12:40:25;;;;;;;2.15;0.82;;;;;;;;;;5047181;28;20032;-76
2022/09/16 12:43:08;;;;;;;0.90;0.67;;;;;;;;;;5042840;28;20040;-72
2022/09/16 12:45:53;;;;;;;0.88;0.70;;;;;;;;;;5043221;28;20392;-71
2022/09/16 12:48:38;;;;;;;2.40;1.33;;;;;;;;;;5022094;28;20187;-72
2022/09/16 12:51:22;;;;;;;2.90;0.70;;;;;;;;;;5036807;28;20060;-73
2022/09/16 12:53:53;;;;;;;0.40;0.40;;;;;;;;;;5033258;28;20574;-75
2022/09/16 12:56:18;;;;;;;4.40;0.57;;;;;;;;;;5042165;28;20029;-76
2022/09/16 12:58:44;;;;;;;2.28;1.25;;;;;;;;;;5022263;28;20048;-70
2022/09/16 13:01:12;;;;;;;0.50;0.40;;;;;;;;;;5018962;28;20025;-72
2022/09/16 13:03:40;;;;;;;3.53;1.38;;;;;;;;;;5037517;28;20032;-77
2022/09/16 13:06:13;;;;;;;6.63;1.30;;;;;;;;;;5026619;28;20032;-72
2022/09/16 13:08:39;;;;;;;1.58;0.70;;;;;;;;;;5030668;28;20033;-75
2022/09/16 13:11:06;;;;;;;1.13;1.00;;;;;;;;;;5024317;28;20429;-71
2022/09/16 13:13:38;;;;;;;2.25;0.60;;;;;;;;;;5025102;28;20037;-75
2022/09/16 13:16:05;;;;;;;4.22;1.45;;;;;;;;;;4990636;28;20176;-75
2022/09/16 13:18:49;;;;;;;0.40;0.38;;;;;;;;;;5024684;28;20237;-72
2022/09/16 13:21:21;;;;;;;4.13;1.08;;;;;;;;;;5025465;28;20422;-74
2022/09/16 13:23:47;;;;;;;0.45;0.40;;;;;;;;;;5024970;28;20030;-73
2022/09/16 13:26:13;;;;;;;0.75;0.50;;;;;;;;;;5007310;28;20780;-75
2022/09/16 13:28:42;;;;;;;1.80;1.00;;;;;;;;;;5024564;28;20056;-75
2022/09/16 13:31:11;;;;;;;0.40;0.40;;;;;;;;;;5008459;28;20034;-74
2022/09/16 13:33:37;;;;;;;6.05;1.00;;;;;;;;;;5007675;28;20472;-74
2022/09/16 13:36:02;;;;;;;2.17;0.73;;;;;;;;;;5008851;28;20075;-74
2022/09/16 13:38:37;;;;;;;0.60;0.40;;;;;;;;;;5026328;28;20026;-74
2022/09/16 13:41:03;;;;;;;3.58;0.77;;;;;;;;;;5008643;28;20116;-74
2022/09/16 13:43:35;;;;;;;8.88;1.77;;;;;;;;;;5025915;28;20439;-74
2022/09/16 13:46:02;;;;;;;1.75;1.10;;;;;;;;;;5035415;28;20035;-74
2022/09/16 13:48:32;;;;;;;2.83;0.93;;;;;;;;;;5044570;28;20033;-73
2022/09/16 13:50:59;;;;;;;1.63;0.80;;;;;;;;;;5045470;28;20524;-75
2022/09/16 13:53:31;;;;;;;5.22;1.08;;;;;;;;;;5045111;28;20040;-74
2022/09/16 13:56:12;;;;;;;1.95;0.50;;;;;;;;;;5044681;28;20041;-74
2022/09/16 13:58:58;;;;;;;7.20;1.33;;;;;;;;;;5045834;28;20075;-74
2022/09/16 14:01:30;;;;;;;1.95;1.00;;;;;;;;;;5029638;28;20152;-73
2022/09/16 14:04:04;;;;;;;0.60;0.60;;;;;;;;;;5045438;28;20082;-73
2022/09/16 14:06:48;;;;;;;1.33;0.80;;;;;;;;;;5044738;28;20037;-74
2022/09/16 14:09:16;;;;;;;6.18;1.75;;;;;;;;;;5024863;28;20045;-73
2022/09/16 14:11:48;;;;;;;0.40;0.40;;;;;;;;;;5025919;28;20033;-73
2022/09/16 14:14:18;;;;;;;0.40;0.40;;;;;;;;;;5026150;28;20064;-73
2022/09/16 14:16:45;;;;;;;2.05;0.80;;;;;;;;;;5027052;28;20026;-72
2022/09/16 14:19:27;;;;;;;1.30;0.75;;;;;;;;;;5038737;28;20030;-74
2022/09/16 14:22:12;;;;;;;0.40;0.40;;;;;;;;;;5036998;28;20029;-73
2022/09/16 14:24:41;;;;;;;0.63;0.57;;;;;;;;;;5036310;28;20037;-73
2022/09/16 14:27:25;;;;;;;1.85;0.93;;;;;;;;;;5030012;28;20389;-73
2022/09/16 14:29:58;;;;;;;0.63;0.63;;;;;;;;;;5030777;28;20033;-74
2022/09/16 14:32:25;;;;;;;0.45;0.45;;;;;;;;;;5030092;28;20034;-74
2022/09/16 14:34:51;;;;;;;2.78;0.90;;;;;;;;;;5030484;28;20033;-73
2022/09/16 14:37:18;;;;;;;0.52;0.50;;;;;;;;;;5028367;28;20481;-74
2022/09/16 14:39:44;;;;;;;4.03;0.88;;;;;;;;;;5029279;28;20030;-75
2022/09/16 14:42:14;;;;;;;2.17;0.65;;;;;;;;;;5029521;28;20036;-74
2022/09/16 14:44:41;;;;;;;1.65;0.90;;;;;;;;;;5029179;28;20404;-76
2022/09/16 14:47:16;;;;;;;0.55;0.35;;;;;;;;;;5028439;28;20033;-73
2022/09/16 14:49:42;;;;;;;0.80;0.40;;;;;;;;;;5029076;28;20577;-75
2022/09/16 14:52:18;;;;;;;0.40;0.40;;;;;;;;;;5028858;28;20381;-74
2022/09/16 14:54:44;;;;;;;2.15;0.75;;;;;;;;;;5027590;28;20045;-74
2022/09/16 14:57:14;;;;;;;1.35;0.95;;;;;;;;;;5029823;28;20063;-73
2022/09/16 14:59:44;;;;;;;0.50;0.50;;;;;;;;;;5027534;28;20034;-73